sensor_id;sensor_type;location;lat;lon;timestamp;P1;durP1;ratioP1;P2;durP2;ratioP2
75537;SDS011;64121;48.666;8.114;2023-05-14T00:01:18;3.72;;;2.95;;
75537;SDS011;64121;48.666;8.114;2023-05-14T00:03:43;4.30;;;3.22;;
75537;SDS011;64121;48.666;8.114;2023-05-14T00:06:08;4.80;;;3.42;;
75537;SDS011;64121;48.666;8.114;2023-05-14T00:08:34;4.53;;;3.10;;
75537;SDS011;64121;48.666;8.114;2023-05-14T00:10:59;5.78;;;3.58;;
75537;SDS011;64121;48.666;8.114;2023-05-14T00:13:24;4.13;;;3.67;;
75537;SDS011;64121;48.666;8.114;2023-05-14T00:15:50;3.53;;;2.85;;
75537;SDS011;64121;48.666;8.114;2023-05-14T00:18:17;3.83;;;3.00;;
75537;SDS011;64121;48.666;8.114;2023-05-14T00:20:42;3.88;;;3.08;;
75537;SDS011;64121;48.666;8.114;2023-05-14T00:23:07;4.85;;;3.28;;
75537;SDS011;64121;48.666;8.114;2023-05-14T00:25:33;3.40;;;3.03;;
75537;SDS011;64121;48.666;8.114;2023-05-14T00:27:58;4.72;;;2.97;;
75537;SDS011;64121;48.666;8.114;2023-05-14T00:30:24;4.32;;;3.47;;
75537;SDS011;64121;48.666;8.114;2023-05-14T00:32:49;4.70;;;2.95;;
75537;SDS011;64121;48.666;8.114;2023-05-14T00:35:16;3.75;;;2.90;;
75537;SDS011;64121;48.666;8.114;2023-05-14T00:37:41;4.68;;;3.42;;
75537;SDS011;64121;48.666;8.114;2023-05-14T00:40:07;4.65;;;3.50;;
75537;SDS011;64121;48.666;8.114;2023-05-14T00:42:33;5.53;;;3.58;;
75537;SDS011;64121;48.666;8.114;2023-05-14T00:44:58;4.07;;;3.38;;
75537;SDS011;64121;48.666;8.114;2023-05-14T00:47:24;4.28;;;3.25;;
75537;SDS011;64121;48.666;8.114;2023-05-14T00:49:49;4.00;;;3.30;;
75537;SDS011;64121;48.666;8.114;2023-05-14T00:52:16;4.75;;;3.78;;
75537;SDS011;64121;48.666;8.114;2023-05-14T00:54:41;4.43;;;3.50;;
75537;SDS011;64121;48.666;8.114;2023-05-14T00:57:08;4.90;;;3.80;;
75537;SDS011;64121;48.666;8.114;2023-05-14T00:59:33;5.20;;;3.80;;
75537;SDS011;64121;48.666;8.114;2023-05-14T01:01:58;4.85;;;3.45;;
75537;SDS011;64121;48.666;8.114;2023-05-14T01:04:24;5.80;;;3.97;;
75537;SDS011;64121;48.666;8.114;2023-05-14T01:06:53;4.30;;;3.67;;
75537;SDS011;64121;48.666;8.114;2023-05-14T01:09:31;5.13;;;4.18;;
75537;SDS011;64121;48.666;8.114;2023-05-14T01:12:02;4.75;;;3.90;;
75537;SDS011;64121;48.666;8.114;2023-05-14T01:14:33;5.70;;;3.38;;
75537;SDS011;64121;48.666;8.114;2023-05-14T01:17:04;4.32;;;3.25;;
75537;SDS011;64121;48.666;8.114;2023-05-14T01:19:36;4.00;;;3.30;;
75537;SDS011;64121;48.666;8.114;2023-05-14T01:22:05;3.85;;;2.92;;
75537;SDS011;64121;48.666;8.114;2023-05-14T01:24:30;4.95;;;3.65;;
75537;SDS011;64121;48.666;8.114;2023-05-14T01:26:57;4.40;;;3.72;;
75537;SDS011;64121;48.666;8.114;2023-05-14T01:29:27;4.70;;;3.60;;
75537;SDS011;64121;48.666;8.114;2023-05-14T01:31:54;4.82;;;3.63;;
75537;SDS011;64121;48.666;8.114;2023-05-14T01:34:23;4.53;;;3.70;;
75537;SDS011;64121;48.666;8.114;2023-05-14T01:36:48;5.22;;;3.58;;
75537;SDS011;64121;48.666;8.114;2023-05-14T01:39:16;3.45;;;2.78;;
75537;SDS011;64121;48.666;8.114;2023-05-14T01:41:42;4.05;;;3.30;;
75537;SDS011;64121;48.666;8.114;2023-05-14T01:44:08;4.07;;;3.20;;
75537;SDS011;64121;48.666;8.114;2023-05-14T01:46:35;4.07;;;3.20;;
75537;SDS011;64121;48.666;8.114;2023-05-14T01:49:00;3.75;;;2.83;;
75537;SDS011;64121;48.666;8.114;2023-05-14T01:51:26;3.95;;;3.40;;
75537;SDS011;64121;48.666;8.114;2023-05-14T01:53:51;4.60;;;3.05;;
75537;SDS011;64121;48.666;8.114;2023-05-14T01:56:18;3.38;;;3.00;;
75537;SDS011;64121;48.666;8.114;2023-05-14T01:58:43;3.97;;;3.55;;
75537;SDS011;64121;48.666;8.114;2023-05-14T02:01:09;4.20;;;3.03;;
75537;SDS011;64121;48.666;8.114;2023-05-14T02:03:34;3.85;;;2.95;;
75537;SDS011;64121;48.666;8.114;2023-05-14T02:05:59;3.80;;;3.05;;
75537;SDS011;64121;48.666;8.114;2023-05-14T02:08:25;3.97;;;2.88;;
75537;SDS011;64121;48.666;8.114;2023-05-14T02:10:50;3.13;;;2.72;;
75537;SDS011;64121;48.666;8.114;2023-05-14T02:13:17;3.90;;;3.03;;
75537;SDS011;64121;48.666;8.114;2023-05-14T02:15:42;4.30;;;3.17;;
75537;SDS011;64121;48.666;8.114;2023-05-14T02:18:07;4.82;;;3.58;;
75537;SDS011;64121;48.666;8.114;2023-05-14T02:20:33;3.88;;;3.03;;
75537;SDS011;64121;48.666;8.114;2023-05-14T02:22:58;6.10;;;3.38;;
75537;SDS011;64121;48.666;8.114;2023-05-14T02:25:23;8.00;;;3.08;;
75537;SDS011;64121;48.666;8.114;2023-05-14T02:27:49;6.15;;;3.55;;
75537;SDS011;64121;48.666;8.114;2023-05-14T02:30:15;3.53;;;2.70;;
75537;SDS011;64121;48.666;8.114;2023-05-14T02:32:41;4.18;;;3.28;;
75537;SDS011;64121;48.666;8.114;2023-05-14T02:35:06;4.05;;;3.20;;
75537;SDS011;64121;48.666;8.114;2023-05-14T02:37:32;4.38;;;3.42;;
75537;SDS011;64121;48.666;8.114;2023-05-14T02:39:58;4.72;;;3.35;;
75537;SDS011;64121;48.666;8.114;2023-05-14T02:42:23;3.92;;;2.95;;
75537;SDS011;64121;48.666;8.114;2023-05-14T02:44:49;3.42;;;2.78;;
75537;SDS011;64121;48.666;8.114;2023-05-14T02:47:15;4.93;;;3.13;;
75537;SDS011;64121;48.666;8.114;2023-05-14T02:49:41;4.78;;;3.00;;
75537;SDS011;64121;48.666;8.114;2023-05-14T02:52:06;3.60;;;2.63;;
75537;SDS011;64121;48.666;8.114;2023-05-14T02:54:31;4.22;;;2.95;;
75537;SDS011;64121;48.666;8.114;2023-05-14T02:56:57;3.13;;;2.80;;
75537;SDS011;64121;48.666;8.114;2023-05-14T02:59:23;5.15;;;2.88;;
75537;SDS011;64121;48.666;8.114;2023-05-14T03:01:48;4.22;;;3.10;;
75537;SDS011;64121;48.666;8.114;2023-05-14T03:04:15;4.22;;;3.25;;
75537;SDS011;64121;48.666;8.114;2023-05-14T03:06:40;5.15;;;4.07;;
75537;SDS011;64121;48.666;8.114;2023-05-14T03:09:05;6.05;;;4.45;;
75537;SDS011;64121;48.666;8.114;2023-05-14T03:11:31;4.75;;;4.10;;
75537;SDS011;64121;48.666;8.114;2023-05-14T03:13:56;5.28;;;4.38;;
75537;SDS011;64121;48.666;8.114;2023-05-14T03:16:22;5.07;;;4.38;;
75537;SDS011;64121;48.666;8.114;2023-05-14T03:18:47;5.88;;;4.43;;
75537;SDS011;64121;48.666;8.114;2023-05-14T03:21:14;5.78;;;4.97;;
75537;SDS011;64121;48.666;8.114;2023-05-14T03:23:39;4.18;;;3.67;;
75537;SDS011;64121;48.666;8.114;2023-05-14T03:26:04;6.50;;;3.22;;
75537;SDS011;64121;48.666;8.114;2023-05-14T03:28:30;3.90;;;3.30;;
75537;SDS011;64121;48.666;8.114;2023-05-14T03:30:55;3.90;;;3.30;;
75537;SDS011;64121;48.666;8.114;2023-05-14T03:33:20;3.20;;;2.72;;
75537;SDS011;64121;48.666;8.114;2023-05-14T03:35:46;3.40;;;2.78;;
75537;SDS011;64121;48.666;8.114;2023-05-14T03:38:12;3.28;;;2.92;;
75537;SDS011;64121;48.666;8.114;2023-05-14T03:40:38;3.45;;;3.00;;
75537;SDS011;64121;48.666;8.114;2023-05-14T03:43:03;4.03;;;3.35;;
75537;SDS011;64121;48.666;8.114;2023-05-14T03:45:28;4.90;;;3.42;;
75537;SDS011;64121;48.666;8.114;2023-05-14T03:47:54;3.72;;;3.33;;
75537;SDS011;64121;48.666;8.114;2023-05-14T03:50:19;6.30;;;3.60;;
75537;SDS011;64121;48.666;8.114;2023-05-14T03:52:45;4.05;;;3.30;;
75537;SDS011;64121;48.666;8.114;2023-05-14T03:55:11;4.35;;;3.28;;
75537;SDS011;64121;48.666;8.114;2023-05-14T03:57:37;3.90;;;2.95;;
75537;SDS011;64121;48.666;8.114;2023-05-14T04:00:02;4.63;;;3.60;;
75537;SDS011;64121;48.666;8.114;2023-05-14T04:02:28;4.30;;;3.55;;
75537;SDS011;64121;48.666;8.114;2023-05-14T04:04:53;4.50;;;3.33;;
75537;SDS011;64121;48.666;8.114;2023-05-14T04:07:18;4.22;;;3.42;;
75537;SDS011;64121;48.666;8.114;2023-05-14T04:09:44;4.50;;;3.45;;
75537;SDS011;64121;48.666;8.114;2023-05-14T04:12:10;5.70;;;3.30;;
75537;SDS011;64121;48.666;8.114;2023-05-14T04:14:36;3.85;;;3.45;;
75537;SDS011;64121;48.666;8.114;2023-05-14T04:17:01;4.88;;;3.58;;
75537;SDS011;64121;48.666;8.114;2023-05-14T04:19:26;4.20;;;3.63;;
75537;SDS011;64121;48.666;8.114;2023-05-14T04:21:52;4.50;;;3.60;;
75537;SDS011;64121;48.666;8.114;2023-05-14T04:24:17;5.10;;;3.45;;
75537;SDS011;64121;48.666;8.114;2023-05-14T04:26:42;4.20;;;3.47;;
75537;SDS011;64121;48.666;8.114;2023-05-14T04:29:09;6.38;;;4.65;;
75537;SDS011;64121;48.666;8.114;2023-05-14T04:31:34;6.65;;;4.30;;
75537;SDS011;64121;48.666;8.114;2023-05-14T04:34:00;6.13;;;4.75;;
75537;SDS011;64121;48.666;8.114;2023-05-14T04:36:25;6.13;;;4.47;;
75537;SDS011;64121;48.666;8.114;2023-05-14T04:38:50;7.07;;;4.40;;
75537;SDS011;64121;48.666;8.114;2023-05-14T04:41:16;6.90;;;4.38;;
75537;SDS011;64121;48.666;8.114;2023-05-14T04:43:41;6.72;;;4.97;;
75537;SDS011;64121;48.666;8.114;2023-05-14T04:46:08;6.22;;;4.57;;
75537;SDS011;64121;48.666;8.114;2023-05-14T04:48:33;6.32;;;4.03;;
75537;SDS011;64121;48.666;8.114;2023-05-14T04:50:58;5.38;;;3.72;;
75537;SDS011;64121;48.666;8.114;2023-05-14T04:53:24;5.55;;;4.20;;
75537;SDS011;64121;48.666;8.114;2023-05-14T04:55:49;6.57;;;4.60;;
75537;SDS011;64121;48.666;8.114;2023-05-14T04:58:14;6.82;;;4.40;;
75537;SDS011;64121;48.666;8.114;2023-05-14T05:00:40;5.65;;;4.72;;
75537;SDS011;64121;48.666;8.114;2023-05-14T05:03:07;7.40;;;4.68;;
75537;SDS011;64121;48.666;8.114;2023-05-14T05:05:32;4.72;;;3.90;;
75537;SDS011;64121;48.666;8.114;2023-05-14T05:07:57;6.30;;;4.78;;
75537;SDS011;64121;48.666;8.114;2023-05-14T05:10:23;7.15;;;5.03;;
75537;SDS011;64121;48.666;8.114;2023-05-14T05:12:48;6.25;;;4.38;;
75537;SDS011;64121;48.666;8.114;2023-05-14T05:15:13;6.80;;;4.68;;
75537;SDS011;64121;48.666;8.114;2023-05-14T05:17:39;6.40;;;4.47;;
75537;SDS011;64121;48.666;8.114;2023-05-14T05:20:06;6.45;;;5.13;;
75537;SDS011;64121;48.666;8.114;2023-05-14T05:22:32;6.45;;;4.95;;
75537;SDS011;64121;48.666;8.114;2023-05-14T05:24:58;5.70;;;4.20;;
75537;SDS011;64121;48.666;8.114;2023-05-14T05:27:23;6.10;;;4.53;;
75537;SDS011;64121;48.666;8.114;2023-05-14T05:29:49;7.35;;;4.75;;
75537;SDS011;64121;48.666;8.114;2023-05-14T05:32:14;6.32;;;4.50;;
75537;SDS011;64121;48.666;8.114;2023-05-14T05:34:40;6.00;;;4.80;;
75537;SDS011;64121;48.666;8.114;2023-05-14T05:37:06;7.10;;;4.75;;
75537;SDS011;64121;48.666;8.114;2023-05-14T05:39:32;6.07;;;4.82;;
75537;SDS011;64121;48.666;8.114;2023-05-14T05:41:57;5.47;;;4.03;;
75537;SDS011;64121;48.666;8.114;2023-05-14T05:44:23;5.45;;;4.57;;
75537;SDS011;64121;48.666;8.114;2023-05-14T05:46:48;7.20;;;4.45;;
75537;SDS011;64121;48.666;8.114;2023-05-14T05:49:14;6.82;;;4.63;;
75537;SDS011;64121;48.666;8.114;2023-05-14T05:51:39;5.57;;;4.95;;
75537;SDS011;64121;48.666;8.114;2023-05-14T05:54:06;4.97;;;4.25;;
75537;SDS011;64121;48.666;8.114;2023-05-14T05:56:31;5.70;;;4.30;;
75537;SDS011;64121;48.666;8.114;2023-05-14T05:58:57;5.72;;;4.80;;
75537;SDS011;64121;48.666;8.114;2023-05-14T06:01:22;5.35;;;4.68;;
75537;SDS011;64121;48.666;8.114;2023-05-14T06:03:48;7.03;;;5.00;;
75537;SDS011;64121;48.666;8.114;2023-05-14T06:06:13;5.20;;;4.50;;
75537;SDS011;64121;48.666;8.114;2023-05-14T06:08:39;5.95;;;4.85;;
75537;SDS011;64121;48.666;8.114;2023-05-14T06:11:05;5.65;;;4.53;;
75537;SDS011;64121;48.666;8.114;2023-05-14T06:13:31;6.80;;;5.25;;
75537;SDS011;64121;48.666;8.114;2023-05-14T06:15:56;8.35;;;5.03;;
75537;SDS011;64121;48.666;8.114;2023-05-14T06:18:21;5.75;;;4.50;;
75537;SDS011;64121;48.666;8.114;2023-05-14T06:20:47;6.40;;;4.80;;
75537;SDS011;64121;48.666;8.114;2023-05-14T06:23:12;6.75;;;5.00;;
75537;SDS011;64121;48.666;8.114;2023-05-14T06:25:38;5.78;;;4.93;;
75537;SDS011;64121;48.666;8.114;2023-05-14T06:28:04;6.15;;;5.22;;
75537;SDS011;64121;48.666;8.114;2023-05-14T06:30:30;6.55;;;5.63;;
75537;SDS011;64121;48.666;8.114;2023-05-14T06:32:55;6.40;;;5.40;;
75537;SDS011;64121;48.666;8.114;2023-05-14T06:35:20;6.68;;;5.75;;
75537;SDS011;64121;48.666;8.114;2023-05-14T06:37:46;6.93;;;5.22;;
75537;SDS011;64121;48.666;8.114;2023-05-14T06:40:11;7.30;;;5.22;;
75537;SDS011;64121;48.666;8.114;2023-05-14T06:42:38;6.30;;;4.75;;
75537;SDS011;64121;48.666;8.114;2023-05-14T06:45:05;7.00;;;4.97;;
75537;SDS011;64121;48.666;8.114;2023-05-14T06:47:31;7.55;;;5.82;;
75537;SDS011;64121;48.666;8.114;2023-05-14T06:49:56;6.85;;;5.50;;
75537;SDS011;64121;48.666;8.114;2023-05-14T06:52:22;5.80;;;4.75;;
75537;SDS011;64121;48.666;8.114;2023-05-14T06:54:47;6.93;;;5.50;;
75537;SDS011;64121;48.666;8.114;2023-05-14T06:57:12;7.03;;;5.70;;
75537;SDS011;64121;48.666;8.114;2023-05-14T06:59:38;7.25;;;5.50;;
75537;SDS011;64121;48.666;8.114;2023-05-14T07:02:04;6.35;;;5.25;;
75537;SDS011;64121;48.666;8.114;2023-05-14T07:04:30;6.32;;;5.22;;
75537;SDS011;64121;48.666;8.114;2023-05-14T07:06:55;6.90;;;5.40;;
75537;SDS011;64121;48.666;8.114;2023-05-14T07:09:21;6.32;;;5.47;;
75537;SDS011;64121;48.666;8.114;2023-05-14T07:11:46;6.95;;;5.15;;
75537;SDS011;64121;48.666;8.114;2023-05-14T07:14:11;7.07;;;5.82;;
75537;SDS011;64121;48.666;8.114;2023-05-14T07:16:37;7.10;;;5.78;;
75537;SDS011;64121;48.666;8.114;2023-05-14T07:19:03;6.40;;;5.63;;
75537;SDS011;64121;48.666;8.114;2023-05-14T07:21:29;5.95;;;5.35;;
75537;SDS011;64121;48.666;8.114;2023-05-14T07:23:54;7.32;;;5.80;;
75537;SDS011;64121;48.666;8.114;2023-05-14T07:26:19;7.72;;;6.03;;
75537;SDS011;64121;48.666;8.114;2023-05-14T07:28:45;6.45;;;5.53;;
75537;SDS011;64121;48.666;8.114;2023-05-14T07:31:10;6.10;;;5.38;;
75537;SDS011;64121;48.666;8.114;2023-05-14T07:33:35;7.18;;;5.50;;
75537;SDS011;64121;48.666;8.114;2023-05-14T07:36:02;7.07;;;5.28;;
75537;SDS011;64121;48.666;8.114;2023-05-14T07:38:27;6.65;;;5.45;;
75537;SDS011;64121;48.666;8.114;2023-05-14T07:40:53;6.25;;;5.47;;
75537;SDS011;64121;48.666;8.114;2023-05-14T07:43:18;8.10;;;5.47;;
75537;SDS011;64121;48.666;8.114;2023-05-14T07:45:44;7.45;;;5.35;;
75537;SDS011;64121;48.666;8.114;2023-05-14T07:48:09;5.43;;;4.80;;
75537;SDS011;64121;48.666;8.114;2023-05-14T07:50:35;7.18;;;5.40;;
75537;SDS011;64121;48.666;8.114;2023-05-14T07:53:02;7.47;;;5.63;;
75537;SDS011;64121;48.666;8.114;2023-05-14T07:55:27;7.93;;;5.60;;
75537;SDS011;64121;48.666;8.114;2023-05-14T07:57:52;7.63;;;6.20;;
75537;SDS011;64121;48.666;8.114;2023-05-14T08:00:18;6.80;;;5.57;;
75537;SDS011;64121;48.666;8.114;2023-05-14T08:02:43;6.07;;;4.97;;
75537;SDS011;64121;48.666;8.114;2023-05-14T08:05:09;6.47;;;5.40;;
75537;SDS011;64121;48.666;8.114;2023-05-14T08:07:34;5.03;;;4.07;;
75537;SDS011;64121;48.666;8.114;2023-05-14T08:10:01;6.68;;;5.63;;
75537;SDS011;64121;48.666;8.114;2023-05-14T08:12:26;6.82;;;5.20;;
75537;SDS011;64121;48.666;8.114;2023-05-14T08:14:52;6.57;;;5.25;;
75537;SDS011;64121;48.666;8.114;2023-05-14T08:17:17;5.72;;;4.88;;
75537;SDS011;64121;48.666;8.114;2023-05-14T08:19:42;6.13;;;5.22;;
75537;SDS011;64121;48.666;8.114;2023-05-14T08:22:08;6.82;;;4.82;;
75537;SDS011;64121;48.666;8.114;2023-05-14T08:24:33;5.10;;;4.60;;
75537;SDS011;64121;48.666;8.114;2023-05-14T08:27:00;5.35;;;4.85;;
75537;SDS011;64121;48.666;8.114;2023-05-14T08:29:25;5.75;;;4.40;;
75537;SDS011;64121;48.666;8.114;2023-05-14T08:31:50;5.32;;;4.63;;
75537;SDS011;64121;48.666;8.114;2023-05-14T08:34:16;6.05;;;5.15;;
75537;SDS011;64121;48.666;8.114;2023-05-14T08:36:41;7.45;;;5.53;;
75537;SDS011;64121;48.666;8.114;2023-05-14T08:39:07;6.15;;;4.75;;
75537;SDS011;64121;48.666;8.114;2023-05-14T08:41:32;5.95;;;5.03;;
75537;SDS011;64121;48.666;8.114;2023-05-14T08:44:01;6.15;;;4.20;;
75537;SDS011;64121;48.666;8.114;2023-05-14T08:46:30;5.97;;;5.17;;
75537;SDS011;64121;48.666;8.114;2023-05-14T08:48:59;6.75;;;4.85;;
75537;SDS011;64121;48.666;8.114;2023-05-14T08:51:32;6.18;;;5.28;;
75537;SDS011;64121;48.666;8.114;2023-05-14T08:53:58;5.95;;;5.35;;
75537;SDS011;64121;48.666;8.114;2023-05-14T08:56:26;7.15;;;5.45;;
75537;SDS011;64121;48.666;8.114;2023-05-14T08:58:51;5.50;;;4.47;;
75537;SDS011;64121;48.666;8.114;2023-05-14T09:01:18;5.57;;;4.70;;
75537;SDS011;64121;48.666;8.114;2023-05-14T09:03:44;4.90;;;4.20;;
75537;SDS011;64121;48.666;8.114;2023-05-14T09:06:11;4.80;;;4.18;;
75537;SDS011;64121;48.666;8.114;2023-05-14T09:08:37;6.05;;;4.53;;
75537;SDS011;64121;48.666;8.114;2023-05-14T09:11:03;5.78;;;4.47;;
75537;SDS011;64121;48.666;8.114;2023-05-14T09:13:28;5.35;;;4.32;;
75537;SDS011;64121;48.666;8.114;2023-05-14T09:15:54;4.57;;;3.90;;
75537;SDS011;64121;48.666;8.114;2023-05-14T09:18:21;6.75;;;4.80;;
75537;SDS011;64121;48.666;8.114;2023-05-14T09:20:47;4.72;;;4.15;;
75537;SDS011;64121;48.666;8.114;2023-05-14T09:23:12;5.05;;;4.50;;
75537;SDS011;64121;48.666;8.114;2023-05-14T09:25:37;6.53;;;4.65;;
75537;SDS011;64121;48.666;8.114;2023-05-14T09:28:04;4.68;;;4.00;;
75537;SDS011;64121;48.666;8.114;2023-05-14T09:30:30;4.30;;;3.60;;
75537;SDS011;64121;48.666;8.114;2023-05-14T09:32:55;3.92;;;3.53;;
75537;SDS011;64121;48.666;8.114;2023-05-14T09:35:22;4.07;;;3.67;;
75537;SDS011;64121;48.666;8.114;2023-05-14T09:37:49;4.07;;;3.67;;
75537;SDS011;64121;48.666;8.114;2023-05-14T09:40:16;5.47;;;3.67;;
75537;SDS011;64121;48.666;8.114;2023-05-14T09:42:43;4.85;;;4.03;;
75537;SDS011;64121;48.666;8.114;2023-05-14T09:45:08;3.90;;;3.40;;
75537;SDS011;64121;48.666;8.114;2023-05-14T09:47:34;4.55;;;3.67;;
75537;SDS011;64121;48.666;8.114;2023-05-14T09:50:00;7.60;;;4.10;;
75537;SDS011;64121;48.666;8.114;2023-05-14T09:52:27;4.20;;;3.70;;
75537;SDS011;64121;48.666;8.114;2023-05-14T09:54:52;5.60;;;3.58;;
75537;SDS011;64121;48.666;8.114;2023-05-14T09:57:17;4.35;;;3.65;;
75537;SDS011;64121;48.666;8.114;2023-05-14T09:59:43;3.63;;;3.10;;
75537;SDS011;64121;48.666;8.114;2023-05-14T10:02:09;3.72;;;3.10;;
75537;SDS011;64121;48.666;8.114;2023-05-14T10:04:40;4.33;;;3.07;;
75537;SDS011;64121;48.666;8.114;2023-05-14T10:07:07;3.65;;;3.00;;
75537;SDS011;64121;48.666;8.114;2023-05-14T10:09:34;6.47;;;5.35;;
75537;SDS011;64121;48.666;8.114;2023-05-14T10:12:03;3.88;;;2.97;;
75537;SDS011;64121;48.666;8.114;2023-05-14T10:14:31;3.80;;;3.47;;
75537;SDS011;64121;48.666;8.114;2023-05-14T10:16:59;4.13;;;2.25;;
75537;SDS011;64121;48.666;8.114;2023-05-14T10:19:25;3.13;;;2.10;;
75537;SDS011;64121;48.666;8.114;2023-05-14T10:21:52;5.75;;;2.80;;
75537;SDS011;64121;48.666;8.114;2023-05-14T10:24:20;4.05;;;2.50;;
75537;SDS011;64121;48.666;8.114;2023-05-14T10:26:48;3.33;;;2.63;;
75537;SDS011;64121;48.666;8.114;2023-05-14T10:29:13;4.65;;;2.30;;
75537;SDS011;64121;48.666;8.114;2023-05-14T10:31:45;2.60;;;2.00;;
75537;SDS011;64121;48.666;8.114;2023-05-14T10:36:57;2.70;;;2.20;;
75537;SDS011;64121;48.666;8.114;2023-05-14T10:39:23;2.55;;;2.00;;
75537;SDS011;64121;48.666;8.114;2023-05-14T10:42:05;3.50;;;2.50;;
75537;SDS011;64121;48.666;8.114;2023-05-14T10:44:33;3.97;;;3.05;;
75537;SDS011;64121;48.666;8.114;2023-05-14T10:46:59;3.17;;;2.45;;
75537;SDS011;64121;48.666;8.114;2023-05-14T10:49:25;4.00;;;2.65;;
75537;SDS011;64121;48.666;8.114;2023-05-14T10:51:51;4.05;;;2.80;;
75537;SDS011;64121;48.666;8.114;2023-05-14T10:54:17;3.88;;;2.53;;
75537;SDS011;64121;48.666;8.114;2023-05-14T10:56:42;3.22;;;2.30;;
75537;SDS011;64121;48.666;8.114;2023-05-14T10:59:11;3.50;;;2.60;;
75537;SDS011;64121;48.666;8.114;2023-05-14T11:01:38;3.25;;;2.63;;
75537;SDS011;64121;48.666;8.114;2023-05-14T11:04:04;2.70;;;2.25;;
75537;SDS011;64121;48.666;8.114;2023-05-14T11:06:29;3.38;;;2.70;;
75537;SDS011;64121;48.666;8.114;2023-05-14T11:08:55;4.40;;;2.83;;
75537;SDS011;64121;48.666;8.114;2023-05-14T11:11:21;3.50;;;2.45;;
75537;SDS011;64121;48.666;8.114;2023-05-14T11:13:47;3.00;;;2.40;;
75537;SDS011;64121;48.666;8.114;2023-05-14T11:16:14;4.53;;;3.03;;
75537;SDS011;64121;48.666;8.114;2023-05-14T11:18:39;4.72;;;3.25;;
75537;SDS011;64121;48.666;8.114;2023-05-14T11:21:05;3.28;;;2.58;;
75537;SDS011;64121;48.666;8.114;2023-05-14T11:23:30;3.10;;;2.78;;
75537;SDS011;64121;48.666;8.114;2023-05-14T11:25:55;3.35;;;2.53;;
75537;SDS011;64121;48.666;8.114;2023-05-14T11:28:21;3.42;;;2.55;;
75537;SDS011;64121;48.666;8.114;2023-05-14T11:30:48;3.80;;;2.83;;
75537;SDS011;64121;48.666;8.114;2023-05-14T11:33:16;3.83;;;2.60;;
75537;SDS011;64121;48.666;8.114;2023-05-14T11:35:42;3.47;;;3.17;;
75537;SDS011;64121;48.666;8.114;2023-05-14T11:38:12;3.35;;;2.83;;
75537;SDS011;64121;48.666;8.114;2023-05-14T11:40:38;3.60;;;2.85;;
75537;SDS011;64121;48.666;8.114;2023-05-14T11:43:03;3.60;;;2.88;;
75537;SDS011;64121;48.666;8.114;2023-05-14T11:45:28;3.50;;;2.95;;
75537;SDS011;64121;48.666;8.114;2023-05-14T11:47:54;3.17;;;2.80;;
75537;SDS011;64121;48.666;8.114;2023-05-14T11:50:21;3.70;;;3.05;;
75537;SDS011;64121;48.666;8.114;2023-05-14T11:52:46;3.85;;;2.72;;
75537;SDS011;64121;48.666;8.114;2023-05-14T11:55:12;3.33;;;2.63;;
75537;SDS011;64121;48.666;8.114;2023-05-14T11:57:37;3.80;;;3.10;;
75537;SDS011;64121;48.666;8.114;2023-05-14T12:00:03;3.13;;;2.55;;
75537;SDS011;64121;48.666;8.114;2023-05-14T12:02:32;3.33;;;2.78;;
75537;SDS011;64121;48.666;8.114;2023-05-14T12:04:58;3.65;;;2.80;;
75537;SDS011;64121;48.666;8.114;2023-05-14T12:07:27;3.65;;;2.65;;
75537;SDS011;64121;48.666;8.114;2023-05-14T12:09:53;4.75;;;2.95;;
75537;SDS011;64121;48.666;8.114;2023-05-14T12:12:19;3.65;;;3.10;;
75537;SDS011;64121;48.666;8.114;2023-05-14T12:14:45;4.50;;;2.58;;
75537;SDS011;64121;48.666;8.114;2023-05-14T12:17:12;3.58;;;2.70;;
75537;SDS011;64121;48.666;8.114;2023-05-14T12:19:39;3.70;;;2.65;;
75537;SDS011;64121;48.666;8.114;2023-05-14T12:22:05;4.60;;;2.95;;
75537;SDS011;64121;48.666;8.114;2023-05-14T12:24:33;4.13;;;3.30;;
75537;SDS011;64121;48.666;8.114;2023-05-14T12:26:59;3.92;;;2.70;;
75537;SDS011;64121;48.666;8.114;2023-05-14T12:29:25;4.38;;;2.83;;
75537;SDS011;64121;48.666;8.114;2023-05-14T12:31:51;4.22;;;2.95;;
75537;SDS011;64121;48.666;8.114;2023-05-14T12:34:16;3.00;;;2.65;;
75537;SDS011;64121;48.666;8.114;2023-05-14T12:36:41;3.00;;;2.50;;
75537;SDS011;64121;48.666;8.114;2023-05-14T12:39:07;3.47;;;3.03;;
75537;SDS011;64121;48.666;8.114;2023-05-14T12:41:35;4.70;;;3.33;;
75537;SDS011;64121;48.666;8.114;2023-05-14T12:44:01;4.13;;;2.72;;
75537;SDS011;64121;48.666;8.114;2023-05-14T12:46:28;5.00;;;3.72;;
75537;SDS011;64121;48.666;8.114;2023-05-14T12:48:54;3.50;;;3.20;;
75537;SDS011;64121;48.666;8.114;2023-05-14T12:51:19;3.92;;;3.17;;
75537;SDS011;64121;48.666;8.114;2023-05-14T12:53:45;3.88;;;3.20;;
75537;SDS011;64121;48.666;8.114;2023-05-14T12:56:10;4.50;;;3.45;;
75537;SDS011;64121;48.666;8.114;2023-05-14T12:58:37;3.90;;;3.25;;
75537;SDS011;64121;48.666;8.114;2023-05-14T13:01:03;4.68;;;3.20;;
75537;SDS011;64121;48.666;8.114;2023-05-14T13:03:28;4.28;;;3.42;;
75537;SDS011;64121;48.666;8.114;2023-05-14T13:05:54;3.88;;;3.47;;
75537;SDS011;64121;48.666;8.114;2023-05-14T13:08:19;4.00;;;3.47;;
75537;SDS011;64121;48.666;8.114;2023-05-14T13:10:45;4.38;;;3.70;;
75537;SDS011;64121;48.666;8.114;2023-05-14T13:13:10;3.38;;;3.08;;
75537;SDS011;64121;48.666;8.114;2023-05-14T13:15:37;3.92;;;3.53;;
75537;SDS011;64121;48.666;8.114;2023-05-14T13:18:03;4.10;;;3.70;;
75537;SDS011;64121;48.666;8.114;2023-05-14T13:20:28;3.92;;;3.53;;
75537;SDS011;64121;48.666;8.114;2023-05-14T13:22:54;4.55;;;3.50;;
75537;SDS011;64121;48.666;8.114;2023-05-14T13:25:19;4.18;;;3.42;;
75537;SDS011;64121;48.666;8.114;2023-05-14T13:27:44;4.45;;;3.13;;
75537;SDS011;64121;48.666;8.114;2023-05-14T13:30:10;3.63;;;3.08;;
75537;SDS011;64121;48.666;8.114;2023-05-14T13:32:37;4.05;;;3.42;;
75537;SDS011;64121;48.666;8.114;2023-05-14T13:35:02;3.65;;;3.08;;
75537;SDS011;64121;48.666;8.114;2023-05-14T13:37:28;4.03;;;3.22;;
75537;SDS011;64121;48.666;8.114;2023-05-14T13:39:53;4.10;;;3.30;;
75537;SDS011;64121;48.666;8.114;2023-05-14T13:42:19;4.22;;;3.00;;
75537;SDS011;64121;48.666;8.114;2023-05-14T13:44:44;4.40;;;2.90;;
75537;SDS011;64121;48.666;8.114;2023-05-14T13:47:09;4.05;;;3.28;;
75537;SDS011;64121;48.666;8.114;2023-05-14T13:49:36;5.38;;;3.70;;
75537;SDS011;64121;48.666;8.114;2023-05-14T13:52:01;3.67;;;3.38;;
75537;SDS011;64121;48.666;8.114;2023-05-14T13:54:27;4.40;;;4.00;;
75537;SDS011;64121;48.666;8.114;2023-05-14T13:56:52;5.00;;;3.63;;
75537;SDS011;64121;48.666;8.114;2023-05-14T13:59:17;3.90;;;3.50;;
75537;SDS011;64121;48.666;8.114;2023-05-14T14:01:43;4.22;;;3.65;;
75537;SDS011;64121;48.666;8.114;2023-05-14T14:04:08;3.95;;;3.55;;
75537;SDS011;64121;48.666;8.114;2023-05-14T14:06:35;4.35;;;3.95;;
75537;SDS011;64121;48.666;8.114;2023-05-14T14:09:00;4.28;;;3.88;;
75537;SDS011;64121;48.666;8.114;2023-05-14T14:11:26;5.22;;;3.83;;
75537;SDS011;64121;48.666;8.114;2023-05-14T14:13:51;5.25;;;4.10;;
75537;SDS011;64121;48.666;8.114;2023-05-14T14:16:17;4.53;;;4.03;;
75537;SDS011;64121;48.666;8.114;2023-05-14T14:18:43;4.18;;;3.78;;
75537;SDS011;64121;48.666;8.114;2023-05-14T14:21:08;5.53;;;3.80;;
75537;SDS011;64121;48.666;8.114;2023-05-14T14:23:35;4.40;;;3.58;;
75537;SDS011;64121;48.666;8.114;2023-05-14T14:26:00;6.28;;;3.55;;
75537;SDS011;64121;48.666;8.114;2023-05-14T14:28:26;3.90;;;3.45;;
75537;SDS011;64121;48.666;8.114;2023-05-14T14:30:51;3.88;;;3.30;;
75537;SDS011;64121;48.666;8.114;2023-05-14T14:33:16;3.95;;;3.55;;
75537;SDS011;64121;48.666;8.114;2023-05-14T14:35:42;3.95;;;3.03;;
75537;SDS011;64121;48.666;8.114;2023-05-14T14:38:07;4.43;;;3.50;;
75537;SDS011;64121;48.666;8.114;2023-05-14T14:40:34;3.75;;;3.42;;
75537;SDS011;64121;48.666;8.114;2023-05-14T14:42:59;3.42;;;3.03;;